Airfield :
LOGIN :

Register | Disclaimer

   EN    FR    IT 

 










Legend :    VFR   Marginal VFR   IFR   Intensive IFR   Very Intensive IFR
Visi :
Ceiling :
>= 8 km
>= 3000ft
5 to 8 km
1000 to 3000 ft
1500m to 5 km
500 to 1000 ft
800 to 1500m
200 to 500 ft
< 800m
< 200 ft
Symbols :   Thunderstorms  Fog  Heavy snow  Heavy precipitations  Wind > 20 kt
SIGMETs :     Misc.  Thunderstorms  Icing  Turbulence  Mountain Waves  Volcanic Ashes







- Airport Elevation : 17 ft
- IATA code : GRQ


EHGG - Groningen Eelde

CURRENT METAR :
  • 231355Z AUTO 33013KT 280V010 9999 BKN027 BKN032 16/09 Q1025 TEMPO 31015G25KT

EXPIRED METARs :
  • 231325Z AUTO 32016KT 290V350 9999 SCT026 SCT029 BKN034 16/10 Q1025 TEMPO 31015G25KT
  • 231255Z AUTO 31014KT 260V360 9999 BKN027 BKN036 17/10 Q1025 TEMPO 31015G25KT
  • 231225Z AUTO 32014KT 290V350 9999 BKN027 OVC031 16/10 Q1025 TEMPO 31015G25KT
  • 231155Z AUTO 31015KT 270V360 9999 SCT029 BKN033 OVC038 16/09 Q1025 TEMPO 31015G25KT
  • 231125Z AUTO 32015KT 280V350 9999 FEW027 SCT035 BKN040 16/09 Q1026 TEMPO 31015G25KT

TAF TAF EHGG
Valid from the 23 at 12:00 until the 24 at 18:00 UTC


231109Z 2312/2418 31015KT 9999 BKN030
TEMPO 2312/2315 31017G27KT
BECMG 2321/2324 28005KT
PROB30
TEMPO 2403/2418 7000 -RADZ BKN012
BECMG 2409/2412 31012KT
No reported NOTAMs for that airfield.



MET'MAP, your aeronautical weather chart ! - Copyright ORBIFLY December 2007 - Disclaimer

ORBIFLY MET'MAP TEAM :

Programming & Development : Alexandra Zaïnal
Concept & Development : Baudouin d'Aumeries
Co-Development & Prog : Marc-Olivier Méhu
Technical & hardware support : Manuel Goepfert

Contact : metmap@orbifly.com




SOURCES & CREDITS :

   NOAA